Aviation Digital Data Service (ADDS)

Output produced by METARs form (0028 UTC 20 April 2019)
found at http://www.aviationweather.gov/metar/data/
 
METAR text: RJCO 200000Z 09003KT 9999 FEW030 09/M03 Q1011
Conditions at: RJCO (SAPPORO (JGSDF/C, JP) observed 0000 UTC 20 April 2019
Temperature: 9.0°C (48°F)
Dewpoint: -3.0°C (27°F) [RH = 43%]
Pressure (altimeter): 29.85 inches Hg (1011.0 mb)
Winds: from the E (90 degrees) at 3 MPH (3 knots; 1.5 m/s)
Visibility: 6 or more miles (10+ km)
Ceiling: at least 12,000 feet AGL
Clouds: few clouds at 3000 feet AGL
Weather: no significant weather observed at this time

METAR text: RJCO 192300Z 10003KT 9999 FEW030 07/M02 Q1012
Conditions at: RJCO (SAPPORO (JGSDF/C, JP) observed 2300 UTC 19 April 2019
Temperature: 7.0°C (45°F)
Dewpoint: -2.0°C (28°F) [RH = 53%]
Pressure (altimeter): 29.88 inches Hg (1012.0 mb)
Winds: from the E (100 degrees) at 3 MPH (3 knots; 1.5 m/s)
Visibility: 6 or more miles (10+ km)
Ceiling: at least 12,000 feet AGL
Clouds: few clouds at 3000 feet AGL
Weather: no significant weather observed at this time

METAR text: RJCO 192200Z 11003KT 9999 FEW030 04/M03 Q1012
Conditions at: RJCO (SAPPORO (JGSDF/C, JP) observed 2200 UTC 19 April 2019
Temperature: 4.0°C (39°F)
Dewpoint: -3.0°C (27°F) [RH = 60%]
Pressure (altimeter): 29.88 inches Hg (1012.0 mb)
Winds: from the ESE (110 degrees) at 3 MPH (3 knots; 1.5 m/s)
Visibility: 6 or more miles (10+ km)
Ceiling: at least 12,000 feet AGL
Clouds: few clouds at 3000 feet AGL
Weather: no significant weather observed at this time

METAR text: RJCO 192100Z VRB01KT 9999 FEW030 M00/M04 Q1012
Conditions at: RJCO (SAPPORO (JGSDF/C, JP) observed 2100 UTC 19 April 2019
Temperature: 0.0°C (32°F)
Dewpoint: -4.0°C (25°F) [RH = 74%]
Pressure (altimeter): 29.88 inches Hg (1012.0 mb)
Winds: variable direction winds at 1 MPH (1 knots; 0.5 m/s)
Visibility: 6 or more miles (10+ km)
Ceiling: at least 12,000 feet AGL
Clouds: few clouds at 3000 feet AGL
Weather: no significant weather observed at this time

METAR text: RJCO 191100Z 27006KT 9999 FEW030 06/M11 Q1012
Conditions at: RJCO (SAPPORO (JGSDF/C, JP) observed 1100 UTC 19 April 2019
Temperature: 6.0°C (43°F)
Dewpoint: -11.0°C (12°F) [RH = 28%]
Pressure (altimeter): 29.88 inches Hg (1012.0 mb)
Winds: from the W (270 degrees) at 7 MPH (6 knots; 3.1 m/s)
Visibility: 6 or more miles (10+ km)
Ceiling: at least 12,000 feet AGL
Clouds: few clouds at 3000 feet AGL
Weather: no significant weather observed at this time

METAR text: RJCO 191000Z 32007KT 9999 FEW030 04/M08 Q1012
Conditions at: RJCO (SAPPORO (JGSDF/C, JP) observed 1000 UTC 19 April 2019
Temperature: 4.0°C (39°F)
Dewpoint: -8.0°C (18°F) [RH = 41%]
Pressure (altimeter): 29.88 inches Hg (1012.0 mb)
Winds: from the NW (320 degrees) at 8 MPH (7 knots; 3.6 m/s)
Visibility: 6 or more miles (10+ km)
Ceiling: at least 12,000 feet AGL
Clouds: few clouds at 3000 feet AGL
Weather: no significant weather observed at this time

METAR text: RJCO 190900Z 32011KT 9999 FEW030 06/M08 Q1011
Conditions at: RJCO (SAPPORO (JGSDF/C, JP) observed 0900 UTC 19 April 2019
Temperature: 6.0°C (43°F)
Dewpoint: -8.0°C (18°F) [RH = 36%]
Pressure (altimeter): 29.85 inches Hg (1011.0 mb)
Winds: from the NW (320 degrees) at 13 MPH (11 knots; 5.7 m/s)
Visibility: 6 or more miles (10+ km)
Ceiling: at least 12,000 feet AGL
Clouds: few clouds at 3000 feet AGL
Weather: no significant weather observed at this time

METAR text: RJCO 190800Z 32019KT 9999 FEW030 07/M07 Q1011
Conditions at: RJCO (SAPPORO (JGSDF/C, JP) observed 0800 UTC 19 April 2019
Temperature: 7.0°C (45°F)
Dewpoint: -7.0°C (19°F) [RH = 36%]
Pressure (altimeter): 29.85 inches Hg (1011.0 mb)
Winds: from the NW (320 degrees) at 22 MPH (19 knots; 9.8 m/s)
Visibility: 6 or more miles (10+ km)
Ceiling: at least 12,000 feet AGL
Clouds: few clouds at 3000 feet AGL
Weather: no significant weather observed at this time

METAR text: RJCO 190700Z 28014KT 9999 FEW020 SCT040 BKN200 09/M08 Q1010
Conditions at: RJCO (SAPPORO (JGSDF/C, JP) observed 0700 UTC 19 April 2019
Temperature: 9.0°C (48°F)
Dewpoint: -8.0°C (18°F) [RH = 29%]
Pressure (altimeter): 29.82 inches Hg (1010.0 mb)
Winds: from the W (280 degrees) at 16 MPH (14 knots; 7.2 m/s)
Visibility: 6 or more miles (10+ km)
Ceiling: 20000 feet AGL
Clouds: few clouds at 2000 feet AGL
scattered clouds at 4000 feet AGL
broken clouds at 20000 feet AGL
Weather: no significant weather observed at this time

METAR text: RJCO 190600Z 31018KT 9999 FEW030 SCT200 09/M08 Q1010
Conditions at: RJCO (SAPPORO (JGSDF/C, JP) observed 0600 UTC 19 April 2019
Temperature: 9.0°C (48°F)
Dewpoint: -8.0°C (18°F) [RH = 29%]
Pressure (altimeter): 29.82 inches Hg (1010.0 mb)
Winds: from the NW (310 degrees) at 21 MPH (18 knots; 9.3 m/s)
Visibility: 6 or more miles (10+ km)
Ceiling: at least 12,000 feet AGL
Clouds: few clouds at 3000 feet AGL
scattered clouds at 20000 feet AGL
Weather: no significant weather observed at this time

METAR text: RJCO 190500Z 32021KT 9999 FEW030 08/M02 Q1009
Conditions at: RJCO (SAPPORO (JGSDF/C, JP) observed 0500 UTC 19 April 2019
Temperature: 8.0°C (46°F)
Dewpoint: -2.0°C (28°F) [RH = 49%]
Pressure (altimeter): 29.79 inches Hg (1009.0 mb)
Winds: from the NW (320 degrees) at 24 MPH (21 knots; 10.8 m/s)
Visibility: 6 or more miles (10+ km)
Ceiling: at least 12,000 feet AGL
Clouds: few clouds at 3000 feet AGL
Weather: no significant weather observed at this time

METAR text: RJCO 190400Z 33020KT 9999 FEW020 SCT060 09/M01 Q1009
Conditions at: RJCO (SAPPORO (JGSDF/C, JP) observed 0400 UTC 19 April 2019
Temperature: 9.0°C (48°F)
Dewpoint: -1.0°C (30°F) [RH = 49%]
Pressure (altimeter): 29.79 inches Hg (1009.0 mb)
Winds: from the NNW (330 degrees) at 23 MPH (20 knots; 10.3 m/s)
Visibility: 6 or more miles (10+ km)
Ceiling: at least 12,000 feet AGL
Clouds: few clouds at 2000 feet AGL
scattered clouds at 6000 feet AGL
Weather: no significant weather observed at this time

METAR text: RJCO 190300Z 33021KT 9999 FEW030 09/01 Q1009
Conditions at: RJCO (SAPPORO (JGSDF/C, JP) observed 0300 UTC 19 April 2019
Temperature: 9.0°C (48°F)
Dewpoint: 1.0°C (34°F) [RH = 57%]
Pressure (altimeter): 29.79 inches Hg (1009.0 mb)
Winds: from the NNW (330 degrees) at 24 MPH (21 knots; 10.8 m/s)
Visibility: 6 or more miles (10+ km)
Ceiling: at least 12,000 feet AGL
Clouds: few clouds at 3000 feet AGL
Weather: no significant weather observed at this time

METAR text: RJCO 190200Z 31018KT 9999 FEW020 SCT050 08/M00 Q1009
Conditions at: RJCO (SAPPORO (JGSDF/C, JP) observed 0200 UTC 19 April 2019
Temperature: 8.0°C (46°F)
Dewpoint: 0.0°C (32°F) [RH = 57%]
Pressure (altimeter): 29.79 inches Hg (1009.0 mb)
Winds: from the NW (310 degrees) at 21 MPH (18 knots; 9.3 m/s)
Visibility: 6 or more miles (10+ km)
Ceiling: at least 12,000 feet AGL
Clouds: few clouds at 2000 feet AGL
scattered clouds at 5000 feet AGL
Weather: no significant weather observed at this time

METAR text: RJCO 190100Z 33021KT 9999 SCT025 BKN035 06/M00 Q1009
Conditions at: RJCO (SAPPORO (JGSDF/C, JP) observed 0100 UTC 19 April 2019
Temperature: 6.0°C (43°F)
Dewpoint: 0.0°C (32°F) [RH = 65%]
Pressure (altimeter): 29.79 inches Hg (1009.0 mb)
Winds: from the NNW (330 degrees) at 24 MPH (21 knots; 10.8 m/s)
Visibility: 6 or more miles (10+ km)
Ceiling: 3500 feet AGL
Clouds: scattered clouds at 2500 feet AGL
broken clouds at 3500 feet AGL
Weather: no significant weather observed at this time

METAR text: RJCO 190000Z 34016KT 9999 FEW020 BKN030 BKN040 07/02 Q1008
Conditions at: RJCO (SAPPORO (JGSDF/C, JP) observed 0000 UTC 19 April 2019
Temperature: 7.0°C (45°F)
Dewpoint: 2.0°C (36°F) [RH = 70%]
Pressure (altimeter): 29.76 inches Hg (1008.0 mb)
Winds: from the NNW (340 degrees) at 18 MPH (16 knots; 8.2 m/s)
Visibility: 6 or more miles (10+ km)
Ceiling: 3000 feet AGL
Clouds: few clouds at 2000 feet AGL
broken clouds at 3000 feet AGL
broken clouds at 4000 feet AGL
Weather: no significant weather observed at this time

METAR text: RJCO 182300Z 33019KT 9999 FEW010 SCT015 BKN020 07/03 Q1008
Conditions at: RJCO (SAPPORO (JGSDF/C, JP) observed 2300 UTC 18 April 2019
Temperature: 7.0°C (45°F)
Dewpoint: 3.0°C (37°F) [RH = 76%]
Pressure (altimeter): 29.76 inches Hg (1008.0 mb)
Winds: from the NNW (330 degrees) at 22 MPH (19 knots; 9.8 m/s)
Visibility: 6 or more miles (10+ km)
Ceiling: 2000 feet AGL
Clouds: few clouds at 1000 feet AGL
scattered clouds at 1500 feet AGL
broken clouds at 2000 feet AGL
Weather: no significant weather observed at this time

METAR text: RJCO 182200Z 34014KT 9000 FEW010 BKN015 BKN020 07/05 Q1008
Conditions at: RJCO (SAPPORO (JGSDF/C, JP) observed 2200 UTC 18 April 2019
Temperature: 7.0°C (45°F)
Dewpoint: 5.0°C (41°F) [RH = 87%]
Pressure (altimeter): 29.76 inches Hg (1008.0 mb)
Winds: from the NNW (340 degrees) at 16 MPH (14 knots; 7.2 m/s)
Visibility: 6 miles ( 9 km)
Ceiling: 1500 feet AGL
Clouds: few clouds at 1000 feet AGL
broken clouds at 1500 feet AGL
broken clouds at 2000 feet AGL
Weather: no significant weather observed at this time

METAR text: RJCO 182100Z 32013KT 5000 -SHRA FEW004 BKN006 BKN008 07/06 Q1008
Conditions at: RJCO (SAPPORO (JGSDF/C, JP) observed 2100 UTC 18 April 2019
Temperature: 7.0°C (45°F)
Dewpoint: 6.0°C (43°F) [RH = 93%]
Pressure (altimeter): 29.76 inches Hg (1008.0 mb)
Winds: from the NW (320 degrees) at 15 MPH (13 knots; 6.7 m/s)
Visibility: 3 miles ( 5 km)
Ceiling: 600 feet AGL
Clouds: few clouds at 400 feet AGL
broken clouds at 600 feet AGL
broken clouds at 800 feet AGL
Weather: -SHRA  (light rain showers)